createdAt,value
2023-02-17T00:00:22.402Z,23.93
2023-02-17T00:02:25.637Z,19.80
2023-02-17T00:04:29.229Z,26.93
2023-02-17T00:06:33.813Z,21.87
2023-02-17T00:08:37.376Z,21.87
2023-02-17T00:10:40.493Z,23.93
2023-02-17T00:12:43.634Z,16.00
2023-02-17T00:14:57.838Z,20.17
2023-02-17T00:17:00.918Z,20.20
2023-02-17T00:19:24.873Z,21.27
2023-02-17T00:21:30.671Z,15.93
2023-02-17T00:23:33.745Z,17.43
2023-02-17T00:25:38.505Z,18.27
2023-02-17T00:27:41.635Z,19.33
2023-02-17T00:29:45.017Z,21.65
2023-02-17T00:31:49.707Z,15.03
2023-02-17T00:33:55.353Z,13.77
2023-02-17T00:35:58.395Z,16.53
2023-02-17T00:38:01.418Z,13.00
2023-02-17T00:40:05.026Z,9.30
2023-02-17T00:42:10.080Z,12.32
2023-02-17T00:44:17.319Z,9.53
2023-02-17T00:46:20.731Z,11.50
2023-02-17T00:48:25.532Z,17.63
2023-02-17T00:50:28.634Z,18.08
2023-02-17T00:52:31.879Z,16.00
2023-02-17T00:54:34.954Z,16.13
2023-02-17T00:56:38.468Z,19.00
2023-02-17T00:58:42.636Z,12.17
2023-02-17T01:00:45.712Z,13.00
2023-02-17T01:02:48.808Z,9.23
2023-02-17T01:04:54.679Z,16.17
2023-02-17T01:06:57.904Z,17.77
2023-02-17T01:09:01.063Z,15.07
2023-02-17T01:11:04.318Z,14.50
2023-02-17T01:13:09.422Z,15.10
2023-02-17T01:15:12.947Z,15.23
2023-02-17T01:17:16.083Z,12.27
2023-02-17T01:19:20.025Z,12.43
2023-02-17T01:21:28.967Z,13.13
2023-02-17T01:23:32.100Z,11.40
2023-02-17T01:25:38.308Z,14.73
2023-02-17T01:27:41.645Z,17.30
2023-02-17T01:29:45.470Z,11.70
2023-02-17T01:31:48.601Z,9.60
2023-02-17T01:33:51.797Z,9.47
2023-02-17T01:35:54.911Z,12.83
2023-02-17T01:37:59.351Z,10.13
2023-02-17T01:40:02.739Z,9.67
2023-02-17T01:42:08.067Z,11.17
2023-02-17T01:44:16.658Z,7.80
2023-02-17T01:46:19.794Z,7.27
2023-02-17T01:48:24.260Z,5.93
2023-02-17T01:50:31.566Z,7.13
2023-02-17T01:52:34.681Z,7.00
2023-02-17T01:54:43.335Z,6.27
2023-02-17T01:56:48.367Z,6.00
2023-02-17T01:58:55.678Z,6.00
2023-02-17T02:01:00.931Z,7.70
2023-02-17T02:03:05.690Z,6.23
2023-02-17T02:05:09.262Z,7.10
2023-02-17T02:07:31.242Z,6.95
2023-02-17T02:10:15.753Z,10.90
2023-02-17T02:12:35.513Z,5.50
2023-02-17T02:23:03.833Z,5.77
2023-02-17T02:25:16.049Z,7.00
2023-02-17T02:27:32.447Z,6.50
2023-02-17T02:30:03.730Z,5.40
2023-02-17T02:32:42.251Z,5.83
2023-02-17T02:34:50.101Z,5.83
2023-02-17T02:36:58.187Z,6.23
2023-02-17T02:39:04.612Z,5.67
2023-02-17T02:41:11.204Z,7.70
2023-02-17T02:43:14.520Z,8.00
2023-02-17T02:45:19.694Z,9.00
2023-02-17T02:47:53.436Z,7.93
2023-02-17T02:50:01.226Z,5.50
2023-02-17T02:52:09.650Z,8.30
2023-02-17T02:54:29.004Z,7.90
2023-02-17T02:56:42.356Z,5.73
2023-02-17T02:58:49.728Z,7.57
2023-02-17T03:00:59.371Z,7.53
2023-02-17T03:03:09.598Z,7.93
2023-02-17T03:05:17.376Z,7.03
2023-02-17T03:07:24.601Z,9.00
2023-02-17T03:09:28.951Z,7.33
2023-02-17T03:11:34.789Z,8.73
2023-02-17T03:13:41.072Z,9.03
2023-02-17T03:15:46.986Z,6.43
2023-02-17T03:17:50.068Z,7.00
2023-02-17T03:19:53.688Z,6.37
2023-02-17T03:22:00.696Z,6.47
2023-02-17T03:24:03.774Z,6.23
2023-02-17T03:26:07.182Z,5.83
2023-02-17T03:28:10.504Z,4.80
2023-02-17T03:30:14.220Z,5.53
2023-02-17T03:32:17.369Z,4.90
2023-02-17T03:34:20.396Z,6.43
2023-02-17T03:36:23.923Z,6.00
2023-02-17T03:38:28.621Z,5.53
2023-02-17T03:40:31.859Z,7.87
2023-02-17T03:42:35.012Z,4.30
2023-02-17T03:44:38.058Z,7.03
2023-02-17T03:46:41.592Z,5.83
2023-02-17T03:48:44.773Z,7.40
2023-02-17T03:50:47.886Z,8.07
2023-02-17T03:52:51.099Z,8.10
2023-02-17T03:54:55.580Z,6.50
2023-02-17T03:56:59.595Z,6.07
2023-02-17T03:59:02.814Z,6.00
2023-02-17T04:01:06.153Z,7.63
2023-02-17T04:03:09.276Z,8.33
2023-02-17T04:05:12.568Z,5.63
2023-02-17T04:07:15.759Z,7.13
2023-02-17T04:09:19.008Z,5.60
2023-02-17T04:11:23.521Z,6.57
2023-02-17T04:13:26.754Z,6.30
2023-02-17T04:15:30.896Z,5.40
2023-02-17T04:17:34.357Z,8.20
2023-02-17T04:19:37.613Z,7.60
2023-02-17T04:21:40.685Z,7.97
2023-02-17T04:23:43.773Z,5.80
2023-02-17T04:25:47.458Z,9.00
2023-02-17T04:27:51.950Z,7.47
2023-02-17T04:29:55.039Z,7.60
2023-02-17T04:31:58.177Z,9.27
2023-02-17T04:34:01.232Z,5.50
2023-02-17T04:36:04.907Z,6.07
2023-02-17T04:38:08.747Z,7.70
2023-02-17T04:40:13.516Z,4.33
2023-02-17T04:42:16.657Z,8.50
2023-02-17T04:44:21.142Z,5.33
2023-02-17T04:46:24.242Z,8.10
2023-02-17T04:48:27.610Z,8.50
2023-02-17T04:50:30.827Z,8.97
2023-02-17T04:52:34.234Z,9.47
2023-02-17T04:54:37.540Z,8.57
2023-02-17T04:56:40.595Z,13.90
2023-02-17T04:58:43.714Z,5.70
2023-02-17T05:00:50.485Z,5.07
2023-02-17T05:02:53.649Z,7.50
2023-02-17T05:04:56.748Z,8.87
2023-02-17T05:06:59.869Z,6.73
2023-02-17T05:09:03.294Z,7.30
2023-02-17T05:11:06.571Z,10.80
2023-02-17T05:13:09.713Z,24.20
2023-02-17T05:15:13.155Z,7.27
2023-02-17T05:17:17.598Z,7.23
2023-02-17T05:19:20.618Z,5.87
2023-02-17T05:21:23.648Z,6.40
2023-02-17T05:23:26.793Z,4.60
2023-02-17T05:25:29.924Z,8.03
2023-02-17T05:27:33.154Z,7.07
2023-02-17T05:29:36.291Z,6.60
2023-02-17T05:31:41.313Z,9.73
2023-02-17T05:33:45.795Z,9.23
2023-02-17T05:35:48.880Z,5.33
2023-02-17T05:37:52.114Z,6.73
2023-02-17T05:39:55.288Z,9.67
2023-02-17T05:41:58.369Z,8.80
2023-02-17T05:44:01.433Z,7.40
2023-02-17T05:46:05.627Z,6.33
2023-02-17T05:48:08.991Z,6.40
2023-02-17T05:50:13.787Z,4.53
2023-02-17T05:52:18.260Z,7.60
2023-02-17T05:54:21.398Z,9.33
2023-02-17T05:56:24.575Z,7.73
2023-02-17T05:58:28.323Z,5.20
2023-02-17T06:00:31.716Z,9.13
2023-02-17T06:02:34.874Z,8.00
2023-02-17T06:04:38.243Z,8.63
2023-02-17T06:06:42.847Z,6.17
2023-02-17T06:08:46.019Z,6.40
2023-02-17T06:10:49.102Z,8.37
2023-02-17T06:12:52.162Z,6.37
2023-02-17T06:14:55.264Z,8.00
2023-02-17T06:17:01.233Z,7.87
2023-02-17T06:19:05.349Z,7.57
2023-02-17T06:21:08.613Z,13.97
2023-02-17T06:23:13.430Z,9.10
2023-02-17T06:25:16.740Z,6.60
2023-02-17T06:27:19.892Z,8.40
2023-02-17T06:29:23.069Z,5.20
2023-02-17T06:31:26.289Z,5.60
2023-02-17T06:33:29.549Z,12.30
2023-02-17T06:35:32.818Z,8.97
2023-02-17T06:37:35.994Z,5.93
2023-02-17T06:39:40.435Z,7.63
2023-02-17T06:41:43.468Z,8.33
2023-02-17T06:43:46.614Z,8.00
2023-02-17T06:45:49.793Z,7.07
2023-02-17T06:47:52.905Z,6.77
2023-02-17T06:49:55.915Z,9.40
2023-02-17T06:51:58.962Z,6.33
2023-02-17T06:54:02.104Z,9.93
2023-02-17T06:56:07.491Z,8.30
2023-02-17T06:58:10.750Z,7.60
2023-02-17T07:00:14.323Z,6.47
2023-02-17T07:02:17.442Z,10.03
2023-02-17T07:04:22.178Z,10.13
2023-02-17T07:06:26.425Z,13.00
2023-02-17T07:08:29.544Z,9.10
2023-02-17T07:10:33.266Z,12.90
2023-02-17T07:12:37.758Z,7.73
2023-02-17T07:14:41.030Z,8.30
2023-02-17T07:16:44.120Z,8.17
2023-02-17T07:18:47.418Z,7.47
2023-02-17T07:20:50.590Z,8.43
2023-02-17T07:22:53.676Z,5.73
2023-02-17T07:24:56.824Z,7.03
2023-02-17T07:27:00.973Z,8.10
2023-02-17T07:29:05.959Z,11.73
2023-02-17T07:31:10.385Z,8.57
2023-02-17T07:33:13.594Z,7.20
2023-02-17T07:35:16.753Z,7.00
2023-02-17T07:37:21.837Z,7.67
2023-02-17T07:39:24.939Z,8.40
2023-02-17T07:41:30.702Z,6.27
2023-02-17T07:43:33.878Z,6.67
2023-02-17T07:45:39.004Z,6.90
2023-02-17T07:47:42.229Z,4.80
2023-02-17T07:49:45.418Z,5.83
2023-02-17T07:51:48.462Z,6.47
2023-02-17T07:53:52.373Z,8.50
2023-02-17T07:55:55.490Z,6.33
2023-02-17T07:57:59.934Z,6.83
2023-02-17T08:00:03.543Z,6.97
2023-02-17T08:02:17.349Z,7.40
2023-02-17T08:04:20.924Z,5.93
2023-02-17T08:06:25.765Z,5.10
2023-02-17T08:08:46.578Z,10.97
2023-02-17T08:11:07.559Z,6.93
2023-02-17T08:13:21.350Z,4.70
2023-02-17T08:15:24.509Z,6.63
2023-02-17T08:17:29.613Z,5.73
2023-02-17T08:19:46.934Z,11.67
2023-02-17T08:21:50.669Z,7.23
2023-02-17T08:23:54.034Z,6.20
2023-02-17T08:25:58.665Z,5.43
2023-02-17T08:28:02.423Z,6.30
2023-02-17T08:30:06.778Z,7.83
2023-02-17T08:32:10.467Z,5.23
2023-02-17T08:34:16.459Z,5.57
2023-02-17T08:36:22.394Z,5.47
2023-02-17T08:38:27.060Z,5.93
2023-02-17T08:40:30.373Z,6.53
2023-02-17T08:42:33.626Z,7.57
2023-02-17T08:44:37.686Z,4.90
2023-02-17T08:46:41.562Z,6.20
2023-02-17T08:48:45.216Z,4.67
2023-02-17T08:50:49.842Z,5.53
2023-02-17T08:52:53.022Z,4.97
2023-02-17T08:54:56.109Z,6.47
2023-02-17T08:56:59.704Z,4.60
2023-02-17T08:59:02.933Z,7.20
2023-02-17T09:01:06.248Z,4.63
2023-02-17T09:03:10.255Z,4.77
2023-02-17T09:05:14.052Z,4.47
2023-02-17T09:07:18.779Z,6.70
2023-02-17T09:09:26.888Z,5.67
2023-02-17T09:11:30.364Z,7.20
2023-02-17T09:13:33.488Z,5.17
2023-02-17T09:15:36.813Z,5.93
2023-02-17T09:17:41.493Z,6.43
2023-02-17T09:19:44.625Z,8.80
2023-02-17T09:21:48.424Z,4.10
2023-02-17T09:23:53.835Z,7.20
2023-02-17T09:26:03.035Z,5.00
2023-02-17T09:28:06.738Z,4.53
2023-02-17T09:30:10.862Z,4.40
2023-02-17T09:32:14.309Z,5.93
2023-02-17T09:34:17.491Z,5.00
2023-02-17T09:36:22.300Z,3.80
2023-02-17T09:38:25.504Z,5.43
2023-02-17T09:40:40.021Z,4.73
2023-02-17T09:42:43.432Z,5.87
2023-02-17T09:44:49.670Z,3.77
2023-02-17T09:47:02.548Z,4.37
2023-02-17T09:49:10.256Z,7.00
2023-02-17T09:51:20.828Z,4.00
2023-02-17T09:53:28.189Z,6.30
2023-02-17T09:55:34.960Z,6.70
2023-02-17T09:57:42.748Z,5.20
2023-02-17T09:59:47.715Z,4.80
2023-02-17T10:01:52.198Z,5.17
2023-02-17T10:03:58.816Z,4.60
2023-02-17T10:06:08.509Z,4.43
2023-02-17T10:08:15.544Z,4.17
2023-02-17T10:10:22.139Z,4.70
2023-02-17T10:12:28.672Z,4.30
2023-02-17T10:14:35.573Z,3.43
2023-02-17T10:16:45.492Z,5.87
2023-02-17T10:18:53.271Z,5.03
2023-02-17T10:20:59.439Z,3.97
2023-02-17T10:23:07.105Z,4.97
2023-02-17T10:25:16.535Z,3.57
2023-02-17T10:27:31.229Z,4.73
2023-02-17T10:29:43.278Z,6.13
2023-02-17T10:31:48.324Z,3.93
2023-02-17T10:33:56.625Z,4.60
2023-02-17T10:36:11.683Z,4.57
2023-02-17T10:38:18.436Z,3.80
2023-02-17T10:40:22.879Z,4.22
2023-02-17T10:42:30.168Z,4.10
2023-02-17T10:44:35.714Z,4.23
2023-02-17T10:46:41.905Z,6.90
2023-02-17T10:48:47.089Z,4.93
2023-02-17T10:50:50.917Z,4.50
2023-02-17T10:52:57.336Z,4.00
2023-02-17T10:55:11.465Z,3.40
2023-02-17T10:57:27.016Z,3.20
2023-02-17T10:59:33.837Z,3.63
2023-02-17T11:01:37.792Z,4.80
2023-02-17T11:03:42.051Z,5.00
2023-02-17T11:05:45.356Z,4.30
2023-02-17T11:07:48.480Z,3.73
2023-02-17T11:09:52.898Z,7.03
2023-02-17T11:12:00.643Z,3.93
2023-02-17T11:14:12.125Z,4.50
2023-02-17T11:16:27.345Z,3.30
2023-02-17T11:18:33.753Z,3.60
2023-02-17T11:20:37.476Z,3.80
2023-02-17T11:22:42.599Z,4.27
2023-02-17T11:24:45.717Z,3.70
2023-02-17T11:26:57.672Z,3.70
2023-02-17T11:29:11.823Z,5.53
2023-02-17T11:31:26.479Z,4.30
2023-02-17T11:33:35.454Z,4.37
2023-02-17T11:35:47.240Z,5.37
2023-02-17T11:37:50.442Z,6.17
2023-02-17T11:39:55.347Z,5.13
2023-02-17T11:41:58.610Z,4.60
2023-02-17T11:44:01.692Z,4.30
2023-02-17T11:46:18.671Z,8.80
2023-02-17T11:48:37.119Z,9.40
2023-02-17T11:50:42.793Z,4.37
2023-02-17T11:52:56.281Z,5.63
2023-02-17T11:55:19.353Z,8.40
2023-02-17T11:57:34.418Z,4.63
2023-02-17T11:59:48.964Z,6.20
2023-02-17T12:02:17.190Z,7.37
2023-02-17T12:04:31.247Z,4.33
2023-02-17T12:06:39.923Z,7.07
2023-02-17T12:09:05.203Z,7.00
2023-02-17T12:11:16.041Z,4.27
2023-02-17T12:13:33.710Z,4.83
2023-02-17T12:15:45.544Z,5.93
2023-02-17T12:17:56.777Z,9.47
2023-02-17T12:20:08.609Z,5.30
2023-02-17T12:22:18.519Z,5.73
2023-02-17T12:24:38.153Z,10.87
2023-02-17T12:26:43.954Z,10.30
2023-02-17T12:29:01.506Z,9.63
2023-02-17T12:31:11.618Z,7.07
2023-02-17T12:33:24.867Z,11.93
2023-02-17T12:35:35.510Z,9.03
2023-02-17T12:37:48.412Z,4.60
2023-02-17T12:39:55.028Z,5.43
2023-02-17T12:42:02.728Z,4.67
2023-02-17T12:44:09.367Z,7.40
2023-02-17T12:46:15.485Z,8.03
2023-02-17T12:48:23.879Z,8.50
2023-02-17T12:50:31.415Z,10.63
2023-02-17T12:52:39.865Z,9.17
2023-02-17T12:54:46.699Z,10.23
2023-02-17T12:56:58.114Z,7.93
2023-02-17T12:59:12.994Z,6.60
2023-02-17T13:01:19.877Z,8.67
2023-02-17T13:03:22.976Z,6.73
2023-02-17T13:05:31.284Z,7.07
2023-02-17T13:07:41.977Z,5.43
2023-02-17T13:09:47.021Z,5.60
2023-02-17T13:11:50.423Z,6.20
2023-02-17T13:13:53.718Z,7.90
2023-02-17T13:16:03.842Z,6.90
2023-02-17T13:18:09.036Z,6.57
2023-02-17T13:20:45.863Z,6.00
2023-02-17T13:22:49.304Z,7.60
2023-02-17T13:24:54.493Z,7.77
2023-02-17T13:26:57.794Z,6.27
2023-02-17T13:29:18.104Z,12.10
2023-02-17T13:31:28.286Z,6.90
2023-02-17T13:33:32.273Z,7.13
2023-02-17T13:35:36.743Z,7.10
2023-02-17T13:37:43.881Z,8.13
2023-02-17T13:39:47.454Z,7.90
2023-02-17T13:41:50.908Z,8.03
2023-02-17T13:43:54.135Z,8.57
2023-02-17T13:45:59.994Z,7.10
2023-02-17T13:48:14.441Z,15.20
2023-02-17T13:50:32.133Z,8.63
2023-02-17T13:52:35.221Z,10.00
2023-02-17T13:54:41.990Z,7.73
2023-02-17T13:56:51.499Z,8.93
2023-02-17T13:58:55.150Z,10.67
2023-02-17T14:00:59.804Z,8.37
2023-02-17T14:03:13.435Z,12.97
2023-02-17T14:05:19.743Z,14.27
2023-02-17T14:07:22.851Z,10.07
2023-02-17T14:09:29.517Z,11.10
2023-02-17T14:11:34.074Z,11.83
2023-02-17T14:13:37.551Z,10.63
2023-02-17T14:15:52.184Z,11.47
2023-02-17T14:17:56.057Z,15.37
2023-02-17T14:20:00.804Z,44.67
2023-02-17T14:22:06.229Z,26.80
2023-02-17T14:24:11.765Z,18.20
2023-02-17T14:26:26.004Z,22.23
2023-02-17T14:28:30.573Z,31.60
2023-02-17T14:30:36.497Z,33.10
2023-02-17T14:32:39.688Z,26.67
2023-02-17T14:34:42.779Z,15.07
2023-02-17T14:36:45.909Z,13.13
2023-02-17T14:38:56.183Z,3.07
2023-02-17T14:41:01.361Z,3.10
2023-02-17T14:43:04.496Z,3.03
2023-02-17T14:45:09.902Z,2.70
2023-02-17T14:47:13.063Z,8.17
2023-02-17T14:49:16.202Z,12.07
2023-02-17T14:51:20.861Z,17.57
2023-02-17T14:53:26.580Z,47.97
2023-02-17T14:55:34.103Z,14.87
2023-02-17T14:57:37.198Z,7.97
2023-02-17T14:59:40.417Z,8.27
2023-02-17T15:01:45.038Z,5.20
2023-02-17T15:03:48.372Z,4.10
2023-02-17T15:05:51.859Z,3.77
2023-02-17T15:07:55.123Z,3.10
2023-02-17T15:09:58.308Z,5.17
2023-02-17T15:12:02.739Z,5.87
2023-02-17T15:14:06.055Z,8.47
2023-02-17T15:16:10.103Z,11.67
2023-02-17T15:18:15.755Z,8.10
2023-02-17T15:20:19.187Z,4.13
2023-02-17T15:22:24.085Z,5.57
2023-02-17T15:24:32.581Z,3.83
2023-02-17T15:26:36.758Z,6.17
2023-02-17T15:28:39.903Z,5.00
2023-02-17T15:30:43.240Z,12.53
2023-02-17T15:32:46.960Z,19.43
2023-02-17T15:34:51.466Z,20.00
2023-02-17T15:36:54.675Z,22.63
2023-02-17T15:38:58.281Z,4.80
2023-02-17T15:41:01.803Z,2.53
2023-02-17T15:43:04.989Z,2.77
2023-02-17T15:45:10.964Z,2.60
2023-02-17T15:47:16.843Z,2.10
2023-02-17T15:49:19.947Z,2.20
2023-02-17T15:51:24.846Z,2.57
2023-02-17T15:53:32.373Z,2.83
2023-02-17T15:55:35.915Z,2.83
2023-02-17T15:57:40.870Z,2.80
2023-02-17T15:59:44.029Z,3.30
2023-02-17T16:01:47.066Z,5.07
2023-02-17T16:03:50.150Z,16.03
2023-02-17T16:05:56.376Z,4.40
2023-02-17T16:08:00.924Z,4.47
2023-02-17T16:10:04.251Z,4.23
2023-02-17T16:12:09.958Z,3.33
2023-02-17T16:14:20.204Z,4.27
2023-02-17T16:16:25.428Z,3.23
2023-02-17T16:18:28.570Z,3.80
2023-02-17T16:20:34.987Z,5.27
2023-02-17T16:22:38.213Z,5.80
2023-02-17T16:24:42.815Z,4.97
2023-02-17T16:26:46.077Z,5.53
2023-02-17T16:28:49.169Z,3.50
2023-02-17T16:30:52.354Z,4.00
2023-02-17T16:32:55.389Z,4.40
2023-02-17T16:34:58.436Z,5.13
2023-02-17T16:37:04.191Z,4.23
2023-02-17T16:39:12.847Z,7.50
2023-02-17T16:41:18.432Z,4.57
2023-02-17T16:43:25.279Z,4.40
2023-02-17T16:45:32.418Z,4.27
2023-02-17T16:47:35.470Z,9.20
2023-02-17T16:49:40.673Z,5.37
2023-02-17T16:51:43.966Z,7.27
2023-02-17T16:53:47.189Z,7.17
2023-02-17T16:55:55.862Z,3.20
2023-02-17T16:58:02.092Z,3.67
2023-02-17T17:00:06.485Z,4.07
2023-02-17T17:02:11.425Z,4.23
2023-02-17T17:04:15.549Z,5.23
2023-02-17T17:06:21.822Z,4.60
2023-02-17T17:08:24.887Z,4.03
2023-02-17T17:10:30.372Z,3.90
2023-02-17T17:12:33.417Z,3.53
2023-02-17T17:14:37.988Z,7.40
2023-02-17T17:16:43.535Z,7.93
2023-02-17T17:18:46.871Z,7.73
2023-02-17T17:20:51.032Z,4.67
2023-02-17T17:22:54.515Z,4.30
2023-02-17T17:24:57.840Z,5.37
2023-02-17T17:27:01.015Z,5.07
2023-02-17T17:29:04.707Z,3.90
2023-02-17T17:31:11.101Z,4.80
2023-02-17T17:33:14.354Z,5.10
2023-02-17T17:35:17.918Z,4.93
2023-02-17T17:37:21.040Z,6.67
2023-02-17T17:39:25.277Z,5.27
2023-02-17T17:41:29.901Z,7.57
2023-02-17T17:43:34.508Z,6.60
2023-02-17T17:45:37.968Z,4.90
2023-02-17T17:47:42.463Z,5.60
2023-02-17T17:49:45.660Z,6.80
2023-02-17T17:51:48.823Z,5.33
2023-02-17T17:53:52.407Z,4.23
2023-02-17T17:55:55.580Z,5.00
2023-02-17T17:57:58.705Z,4.53
2023-02-17T18:00:01.838Z,6.60
2023-02-17T18:02:05.171Z,6.87
2023-02-17T18:04:09.778Z,4.43
2023-02-17T18:06:16.834Z,5.00
2023-02-17T18:08:20.123Z,4.20
2023-02-17T18:10:23.558Z,4.00
2023-02-17T18:12:26.831Z,6.10
2023-02-17T18:14:31.902Z,4.23
2023-02-17T18:16:35.326Z,4.73
2023-02-17T18:18:38.465Z,5.47
2023-02-17T18:20:42.933Z,4.10
2023-02-17T18:22:46.056Z,4.80
2023-02-17T18:24:49.152Z,6.13
2023-02-17T18:26:53.015Z,8.17
2023-02-17T18:28:56.060Z,6.50
2023-02-17T18:30:59.251Z,5.47
2023-02-17T18:33:02.366Z,10.97
2023-02-17T18:35:06.053Z,9.73
2023-02-17T18:37:10.543Z,11.00
2023-02-17T18:39:13.660Z,12.27
2023-02-17T18:41:20.157Z,6.40
2023-02-17T18:43:23.533Z,14.30
2023-02-17T18:45:26.758Z,8.20
2023-02-17T18:47:29.872Z,9.20
2023-02-17T18:49:33.100Z,12.30
2023-02-17T18:51:36.142Z,9.03
2023-02-17T18:53:40.874Z,6.53
2023-02-17T18:55:44.410Z,9.67
2023-02-17T18:57:47.595Z,8.10
2023-02-17T18:59:50.637Z,11.40
2023-02-17T19:01:53.669Z,8.47
2023-02-17T19:03:57.410Z,9.53
2023-02-17T19:06:00.555Z,5.73
2023-02-17T19:08:03.648Z,11.23
2023-02-17T19:10:09.729Z,14.57
2023-02-17T19:12:13.610Z,11.30
2023-02-17T19:14:16.750Z,11.33
2023-02-17T19:16:21.909Z,7.10
2023-02-17T19:18:25.067Z,6.17
2023-02-17T19:20:28.132Z,6.77
2023-02-17T19:22:31.075Z,6.60
2023-02-17T19:24:34.127Z,7.23
2023-02-17T19:26:38.902Z,6.83
2023-02-17T19:28:42.085Z,6.30
2023-02-17T19:30:45.132Z,5.30
2023-02-17T19:32:48.164Z,4.97
2023-02-17T19:34:51.448Z,4.80
2023-02-17T19:36:54.584Z,4.90
2023-02-17T19:38:58.424Z,5.43
2023-02-17T19:41:03.346Z,4.40
2023-02-17T19:43:07.891Z,3.50
2023-02-17T19:45:11.286Z,6.03
2023-02-17T19:47:14.378Z,5.40
2023-02-17T19:49:17.440Z,4.57
2023-02-17T19:51:20.999Z,4.33
2023-02-17T19:53:23.964Z,4.07
2023-02-17T19:55:27.021Z,4.07
2023-02-17T19:57:30.078Z,3.83
2023-02-17T19:59:34.643Z,4.33
2023-02-17T20:01:37.742Z,5.70
2023-02-17T20:03:40.837Z,6.20
2023-02-17T20:05:43.992Z,4.87
2023-02-17T20:07:47.075Z,4.37
2023-02-17T20:09:50.315Z,4.30
2023-02-17T20:11:53.577Z,4.13
2023-02-17T20:13:58.815Z,4.30
2023-02-17T20:16:07.481Z,4.53
2023-02-17T20:18:10.859Z,4.40
2023-02-17T20:20:13.982Z,3.53
2023-02-17T20:22:17.071Z,4.70
2023-02-17T20:24:20.132Z,5.10
2023-02-17T20:26:25.431Z,3.73
2023-02-17T20:28:28.803Z,4.30
2023-02-17T20:30:32.079Z,2.80
2023-02-17T20:32:37.278Z,3.43
2023-02-17T20:34:40.879Z,2.63
2023-02-17T20:36:44.072Z,2.97
2023-02-17T20:38:47.197Z,3.10
2023-02-17T20:40:50.465Z,2.83
2023-02-17T20:42:53.587Z,2.53
2023-02-17T20:44:56.836Z,4.20
2023-02-17T20:47:00.427Z,2.50
2023-02-17T20:49:04.974Z,4.00
2023-02-17T20:51:08.197Z,2.60
2023-02-17T20:53:11.315Z,3.40
2023-02-17T20:55:15.438Z,1.70
2023-02-17T20:57:18.721Z,1.97
2023-02-17T20:59:24.142Z,1.70
2023-02-17T21:01:27.551Z,2.87
2023-02-17T21:03:33.045Z,3.10
2023-02-17T21:05:38.048Z,2.87
2023-02-17T21:07:41.404Z,1.70
2023-02-17T21:09:45.441Z,1.70
2023-02-17T21:11:49.239Z,1.40
2023-02-17T21:13:52.837Z,2.83
2023-02-17T21:15:56.135Z,3.63
2023-02-17T21:17:59.238Z,1.87
2023-02-17T21:20:02.331Z,4.40
2023-02-17T21:22:06.781Z,2.17
2023-02-17T21:24:10.456Z,1.90
2023-02-17T21:26:14.836Z,2.23
2023-02-17T21:28:18.789Z,1.90
2023-02-17T21:30:24.801Z,2.90
2023-02-17T21:32:28.469Z,3.43
2023-02-17T21:34:31.722Z,2.20
2023-02-17T21:36:34.878Z,2.30
2023-02-17T21:38:40.007Z,2.13
2023-02-17T21:40:43.185Z,3.10
2023-02-17T21:43:05.409Z,1.90
2023-02-17T21:45:09.282Z,1.73
2023-02-17T21:47:12.471Z,1.90
2023-02-17T21:49:16.964Z,2.03
2023-02-17T21:51:20.484Z,2.70
2023-02-17T21:53:23.746Z,2.23
2023-02-17T21:55:28.340Z,2.67
2023-02-17T21:57:31.714Z,2.90
2023-02-17T21:59:34.942Z,4.40
2023-02-17T22:01:38.467Z,3.80
2023-02-17T22:03:42.006Z,7.10
2023-02-17T22:05:45.414Z,5.23
2023-02-17T22:07:52.527Z,5.43
2023-02-17T22:09:59.422Z,4.03
2023-02-17T22:12:06.779Z,4.27
2023-02-17T22:14:13.522Z,5.27
2023-02-17T22:16:17.343Z,5.07
2023-02-17T22:18:21.565Z,5.47
2023-02-17T22:20:24.871Z,5.70
2023-02-17T22:22:28.016Z,3.87
2023-02-17T22:24:31.280Z,2.80
2023-02-17T22:26:34.479Z,3.53
2023-02-17T22:28:39.760Z,4.13
2023-02-17T22:30:42.931Z,5.13
2023-02-17T22:32:46.029Z,5.10
2023-02-17T22:34:49.162Z,6.43
2023-02-17T22:36:52.202Z,4.80
2023-02-17T22:38:55.396Z,3.37
2023-02-17T22:40:58.572Z,3.80
2023-02-17T22:43:01.756Z,2.23
2023-02-17T22:45:09.265Z,2.63
2023-02-17T22:47:12.464Z,2.60
2023-02-17T22:49:15.696Z,2.40
2023-02-17T22:51:23.256Z,2.57
2023-02-17T22:53:26.908Z,2.83
2023-02-17T22:55:30.219Z,1.53
2023-02-17T22:57:33.459Z,1.63
2023-02-17T22:59:36.721Z,2.23
2023-02-17T23:01:41.307Z,1.67
2023-02-17T23:03:45.190Z,2.50
2023-02-17T23:05:48.451Z,1.90
2023-02-17T23:07:54.172Z,2.07
2023-02-17T23:09:57.279Z,2.07
2023-02-17T23:12:00.497Z,2.70
2023-02-17T23:14:04.169Z,2.07
2023-02-17T23:16:08.983Z,2.37
2023-02-17T23:18:14.913Z,2.07
2023-02-17T23:20:18.055Z,2.27
2023-02-17T23:22:21.162Z,1.83
2023-02-17T23:24:25.740Z,2.20
2023-02-17T23:26:28.949Z,2.40
2023-02-17T23:28:32.282Z,2.30
2023-02-17T23:30:36.017Z,3.80
2023-02-17T23:32:39.168Z,2.47
2023-02-17T23:34:43.610Z,2.40
2023-02-17T23:36:47.517Z,2.53
2023-02-17T23:38:50.567Z,2.53
2023-02-17T23:40:53.947Z,3.07
2023-02-17T23:42:57.090Z,1.60
2023-02-17T23:45:00.261Z,2.13
2023-02-17T23:47:04.295Z,2.97
2023-02-17T23:49:07.418Z,1.90
2023-02-17T23:51:16.072Z,2.70
2023-02-17T23:53:19.150Z,2.37
2023-02-17T23:55:22.730Z,1.77
2023-02-17T23:57:27.461Z,3.00
2023-02-17T23:59:30.550Z,1.70
